Rensselaer Airport

About
Name: Rensselaer Airport
Identifier:  RNZ/KRZL
Local Time:  23. Aug 00:41 CDT
Location
Flights per Day
0 flights
Distance: 903km (561mi)
Punctuality
0% (0 flights per day delayed)
Delay Average: 35 minutes
Current Weather
 18 C (Humidity: 72%)
  6kt (11km/h / 6mph) from 40°
  Broken clouds at 5,000 feet (1,524 meter)
  Broken clouds at 7,500 feet (2,286 meter)
  16km (10 mi.)
 METAR KRZL 230455Z AUTO 04006KT 10SM BKN050 BKN075 18/13 A3007 RMK AO2

Current Flights

Departures
Number Departure To Airline
Arrivals
Number Arrival From Airline

Current Delays

Departures
N/A
Arrivals
N/A

Destinations

Top Destinations
Airport Flights
per week
Seats
per week
  Juneau (UNU) 0 - 0 0
  Ithaca (ITH) 0 - 0 0
  La Grange (LGC) 0 - 0 0
  Lawrenceville (LZU) 0 - 0 0
  Capital City (FFT) 0 - 0 0
  Ann Arbor (ARB) 0 - 0 0
  Wilmington (ILM) 0 - 0 0
  Chicago (MDW) 0 - 0 0

Airlines & Planes

Top Airlines
Airline Flights
per Day
Seats
per Day
  Novair 0 -
  Nolinor Aviation 0 -
Jet Charter Inc ( Franklin Lakes Nj ) 0 -
  National Airlines 0 -
Nordwind Airlines 0 -
Top Plane Types
Model Flights Seats
Piper PA-32R-301T Saratoga II 0.0/day - 0